Time;durP1;ratioP1;P1;durP2;ratioP2;P2;SDS_P1;SDS_P2;PMS_P1;PMS_P2;Temp;Humidity;BMP_temperature;BMP_pressure;BME280_temperature;BME280_humidity;BME280_pressure;Samples;Min_cycle;Max_cycle;Signal;HPM_P1;HPM_P2
2022/07/22 00:00:15;;;;;;;4.80;1.95;;;;;;;16.70;100.00;102124.53;2614917;31;20515;-49
2022/07/22 00:02:44;;;;;;;5.22;1.80;;;;;;;16.70;100.00;102124.53;2614741;36;20034;-50
2022/07/22 00:05:12;;;;;;;5.68;1.85;;;;;;;16.57;100.00;102119.41;2614983;36;20065;-49
2022/07/22 00:07:43;;;;;;;2.27;1.57;;;;;;;16.73;100.00;102113.38;2615455;36;20110;-48
2022/07/22 00:10:13;;;;;;;6.32;1.50;;;;;;;16.75;100.00;102115.94;2615022;36;21201;-48
2022/07/22 00:12:41;;;;;;;6.57;2.08;;;;;;;16.74;100.00;102119.66;2615025;36;20420;-50
2022/07/22 00:15:12;;;;;;;4.60;1.98;;;;;;;16.68;100.00;102118.41;2615120;36;20034;-49
2022/07/22 00:17:41;;;;;;;3.85;1.60;;;;;;;16.69;100.00;102119.25;2614535;36;20034;-51
2022/07/22 00:20:11;;;;;;;7.40;2.10;;;;;;;16.69;100.00;102117.38;2614767;36;20030;-53
2022/07/22 00:22:39;;;;;;;4.90;1.98;;;;;;;16.76;100.00;102113.06;2615340;31;20053;-50
2022/07/22 00:25:11;;;;;;;3.55;1.63;;;;;;;16.76;100.00;102121.22;2614894;31;20567;-52
2022/07/22 00:27:39;;;;;;;5.00;1.63;;;;;;;16.80;100.00;102114.50;2614083;36;20041;-51
2022/07/22 00:30:09;;;;;;;4.53;1.93;;;;;;;16.73;100.00;102117.97;2614716;36;20042;-49
2022/07/22 00:32:37;;;;;;;4.68;1.70;;;;;;;16.67;100.00;102122.09;2614365;36;20065;-51
2022/07/22 00:35:07;;;;;;;4.50;1.60;;;;;;;16.72;100.00;102121.66;2615551;36;20089;-48
2022/07/22 00:37:36;;;;;;;7.22;1.92;;;;;;;16.67;100.00;102122.09;2615281;36;20417;-50
2022/07/22 00:40:05;;;;;;;4.65;1.75;;;;;;;16.60;100.00;102126.41;2615036;36;20038;-51
2022/07/22 00:42:36;;;;;;;;;;;;;;;16.68;100.00;102115.69;2613974;36;20022;-51
2022/07/22 00:45:06;;;;;;;8.57;1.85;;;;;;;16.68;100.00;102115.69;2614520;31;19958;-50
2022/07/22 00:47:35;;;;;;;4.15;1.90;;;;;;;16.60;100.00;102115.53;2614450;36;20039;-55
2022/07/22 00:50:03;;;;;;;3.55;1.73;;;;;;;16.71;100.00;102112.66;2615438;36;20400;-53
2022/07/22 00:52:33;;;;;;;7.78;1.80;;;;;;;16.72;100.00;102105.34;2615035;36;20339;-48
2022/07/22 00:55:02;;;;;;;6.30;1.90;;;;;;;16.70;100.00;102110.94;2614977;36;20061;-54
2022/07/22 00:57:30;;;;;;;6.90;1.85;;;;;;;16.71;100.00;102112.66;2614654;36;20122;-49
2022/07/22 01:00:09;;;;;;;5.90;2.03;;;;;;;16.57;100.00;102113.13;2614577;36;20030;-48
2022/07/22 01:02:38;;;;;;;4.13;1.98;;;;;;;16.56;100.00;102109.53;2614994;36;20478;-48
2022/07/22 01:05:08;;;;;;;3.72;1.83;;;;;;;16.63;100.00;102105.22;2615212;31;20567;-49
2022/07/22 01:07:37;;;;;;;5.32;1.60;;;;;;;16.67;100.00;102108.53;2615004;31;20586;-50
2022/07/22 01:10:06;;;;;;;5.70;1.60;;;;;;;16.75;100.00;102114.06;2615700;36;20038;-50
2022/07/22 01:12:34;;;;;;;;;;;;;;;16.77;100.00;102105.78;2615308;36;20054;-53
2022/07/22 01:15:06;;;;;;;5.70;1.90;;;;;;;16.74;100.00;102104.22;2615646;36;19950;-50
2022/07/22 01:17:34;;;;;;;3.17;1.80;;;;;;;16.68;100.00;102109.38;2615146;36;20671;-54
2022/07/22 01:20:07;;;;;;;6.53;1.98;;;;;;;16.67;100.00;102100.38;2615738;36;20038;-50
2022/07/22 01:22:36;;;;;;;4.30;1.80;;;;;;;16.72;100.00;102105.34;2616021;36;20045;-50
2022/07/22 01:25:04;;;;;;;5.73;1.87;;;;;;;16.69;100.00;102095.63;2615404;36;20181;-52
2022/07/22 01:27:32;;;;;;;3.50;1.50;;;;;;;16.70;100.00;102097.34;2615090;36;20330;-49
2022/07/22 01:30:01;;;;;;;3.57;1.50;;;;;;;16.68;100.00;102104.81;2615896;31;20428;-50
2022/07/22 01:32:29;;;;;;;3.13;1.43;;;;;;;16.66;100.00;102103.22;2615337;31;20061;-54
2022/07/22 01:34:58;;;;;;;4.68;1.52;;;;;;;16.62;100.00;102105.38;2615852;31;20086;-50
2022/07/22 01:37:29;;;;;;;4.68;1.48;;;;;;;16.63;100.00;102107.94;2615913;31;20134;-50
2022/07/22 01:39:57;;;;;;;4.15;1.40;;;;;;;16.68;100.00;102110.25;2615714;36;20029;-52
2022/07/22 01:42:25;;;;;;;2.57;1.27;;;;;;;16.61;100.00;102100.94;2615120;31;20041;-51
2022/07/22 01:44:55;;;;;;;4.40;1.47;;;;;;;16.61;100.00;102103.66;2615407;36;20552;-60
2022/07/22 01:47:23;;;;;;;;;;;;;;;16.61;100.00;102103.66;2614995;36;20307;-53
2022/07/22 01:49:51;;;;;;;4.72;1.55;;;;;;;16.67;100.00;102100.38;2615711;36;20436;-49
2022/07/22 01:52:19;;;;;;;3.90;1.73;;;;;;;16.61;100.00;102103.66;2615547;36;20053;-51
2022/07/22 01:54:50;;;;;;;6.23;1.40;;;;;;;16.58;100.00;102103.97;2615543;36;20291;-54
2022/07/22 01:57:18;;;;;;;5.35;1.80;;;;;;;16.58;100.00;102103.97;2615000;36;20034;-49
2022/07/22 01:59:47;;;;;;;3.73;1.77;;;;;;;16.63;100.00;102104.38;2615634;36;20030;-48
2022/07/22 02:02:15;;;;;;;4.03;1.67;;;;;;;16.56;100.00;102106.84;2614672;36;20030;-53
2022/07/22 02:04:43;;;;;;;1.43;1.17;;;;;;;16.52;100.00;102101.81;2615523;36;20037;-49
2022/07/22 02:07:12;;;;;;;5.80;1.48;;;;;;;16.59;100.00;102105.66;2615532;36;20035;-47
2022/07/22 02:09:40;;;;;;;3.37;1.23;;;;;;;16.57;100.00;102104.97;2615396;36;20037;-49
2022/07/22 02:12:11;;;;;;;2.20;1.37;;;;;;;16.61;100.00;102104.50;2614800;36;20522;-54
2022/07/22 02:14:39;;;;;;;3.08;1.13;;;;;;;16.66;100.00;102104.06;2615409;36;20062;-49
2022/07/22 02:17:07;;;;;;;4.63;1.30;;;;;;;16.66;100.00;102101.34;2614470;31;20061;-51
2022/07/22 02:19:36;;;;;;;4.20;1.40;;;;;;;16.59;100.00;102092.94;2615537;36;20038;-49
2022/07/22 02:22:04;;;;;;;5.37;1.50;;;;;;;16.55;100.00;102090.63;2615645;36;20031;-50
2022/07/22 02:24:32;;;;;;;3.97;1.60;;;;;;;16.51;100.00;102089.25;2615428;31;20026;-53
2022/07/22 02:27:01;;;;;;;4.28;1.30;;;;;;;16.45;100.00;102083.38;2615565;36;20073;-51
2022/07/22 02:29:32;;;;;;;8.17;1.77;;;;;;;16.59;100.00;102090.22;2615304;36;20035;-53
2022/07/22 02:32:00;;;;;;;3.38;1.75;;;;;;;16.61;100.00;102081.94;2614696;36;20982;-53
2022/07/22 02:34:29;;;;;;;4.47;1.60;;;;;;;16.58;100.00;102082.22;2615259;36;20034;-53
2022/07/22 02:36:57;;;;;;;6.47;2.30;;;;;;;16.58;100.00;102082.22;2615063;36;20038;-54
2022/07/22 02:39:26;;;;;;;3.17;1.33;;;;;;;16.60;100.00;102078.31;2615879;36;20034;-51
2022/07/22 02:41:54;;;;;;;3.15;1.50;;;;;;;16.60;100.00;102082.91;2615306;36;20035;-52
2022/07/22 02:44:22;;;;;;;3.90;2.03;;;;;;;16.55;100.00;102086.09;2616034;36;20093;-51
2022/07/22 02:46:53;;;;;;;5.93;1.67;;;;;;;16.55;100.00;102087.91;2614350;36;20046;-50
2022/07/22 02:49:21;;;;;;;3.95;2.03;;;;;;;16.42;100.00;102083.66;2615974;36;20140;-53
2022/07/22 02:51:50;;;;;;;3.90;1.33;;;;;;;16.50;100.00;102085.63;2615795;36;20443;-55
2022/07/22 02:54:18;;;;;;;3.53;1.30;;;;;;;16.53;100.00;102085.34;2615439;36;20034;-53
2022/07/22 02:56:46;;;;;;;4.03;1.55;;;;;;;16.58;100.00;102079.50;2614778;36;20031;-54
2022/07/22 02:59:15;;;;;;;2.78;1.48;;;;;;;16.57;100.00;102081.34;2615862;36;20039;-54
2022/07/22 03:01:43;;;;;;;3.27;1.20;;;;;;;16.61;100.00;102081.94;2615106;36;20447;-54
2022/07/22 03:04:14;;;;;;;5.00;1.73;;;;;;;16.43;100.00;102079.94;2615406;31;20065;-50
2022/07/22 03:06:42;;;;;;;6.45;1.80;;;;;;;16.51;100.00;102081.09;2615466;36;20463;-52
2022/07/22 03:09:10;;;;;;;3.60;1.40;;;;;;;16.59;100.00;102083.91;2615784;36;20551;-52
2022/07/22 03:11:39;;;;;;;2.78;2.08;;;;;;;16.62;100.00;102080.91;2614840;36;20035;-52
2022/07/22 03:14:11;;;;;;;4.30;1.60;;;;;;;16.56;100.00;102089.66;2615971;36;20033;-52
2022/07/22 03:16:39;;;;;;;3.25;1.50;;;;;;;16.55;100.00;102093.34;2615128;31;20702;-54
2022/07/22 03:19:07;;;;;;;6.00;1.90;;;;;;;16.58;100.00;102093.09;2615000;36;20084;-51
2022/07/22 03:21:38;;;;;;;3.63;1.70;;;;;;;16.61;100.00;102098.22;2615117;36;20074;-54
2022/07/22 03:24:07;;;;;;;3.97;1.30;;;;;;;16.54;100.00;102091.66;2615465;31;20039;-54
2022/07/22 03:26:35;;;;;;;3.45;1.55;;;;;;;16.42;100.00;102099.97;2615448;31;20043;-56
2022/07/22 03:29:04;;;;;;;7.07;2.17;;;;;;;16.46;100.00;102106.81;2614847;36;20073;-51
2022/07/22 03:31:32;;;;;;;5.35;2.10;;;;;;;16.41;100.00;102108.25;2614530;36;20053;-51
2022/07/22 03:34:01;;;;;;;7.07;2.60;;;;;;;16.33;100.00;102106.25;2615210;36;20042;-50
2022/07/22 03:36:30;;;;;;;5.97;2.42;;;;;;;16.28;100.00;102108.53;2614478;36;20138;-53
2022/07/22 03:39:00;;;;;;;10.43;2.15;;;;;;;16.33;100.00;102114.41;2615790;36;20042;-54
2022/07/22 03:41:29;;;;;;;5.53;2.35;;;;;;;16.39;100.00;102111.13;2614855;36;20066;-51
2022/07/22 03:43:57;;;;;;;3.73;2.30;;;;;;;16.29;100.00;102112.97;2616248;36;20423;-50
2022/07/22 03:46:25;;;;;;;6.78;2.38;;;;;;;16.30;100.00;102117.44;2614576;31;20291;-51
2022/07/22 03:48:53;;;;;;;8.23;2.37;;;;;;;16.36;100.00;102108.69;2615559;36;20065;-52
2022/07/22 03:51:22;;;;;;;3.30;2.30;;;;;;;16.30;100.00;102112.00;2614970;36;20038;-52
2022/07/22 03:53:50;;;;;;;4.85;2.40;;;;;;;16.38;100.00;102113.97;2615438;31;20065;-51
2022/07/22 03:56:21;;;;;;;4.80;2.38;;;;;;;16.29;100.00;102107.53;2615220;31;20089;-55
2022/07/22 03:58:49;;;;;;;7.60;2.72;;;;;;;16.20;100.00;102105.69;2615466;36;20030;-56
2022/07/22 04:01:17;;;;;;;5.87;2.60;;;;;;;16.11;100.00;102105.53;2614477;36;20065;-51
2022/07/22 04:03:46;;;;;;;6.30;3.33;;;;;;;16.16;100.00;102105.09;2615841;31;20033;-55
2022/07/22 04:06:14;;;;;;;6.63;2.67;;;;;;;16.25;100.00;102104.28;2614151;36;20069;-54
2022/07/22 04:08:42;;;;;;;7.03;2.87;;;;;;;16.24;100.00;102104.41;2615151;36;20422;-50
2022/07/22 04:11:11;;;;;;;4.78;2.15;;;;;;;16.37;100.00;102110.41;2614430;36;20030;-50
2022/07/22 04:13:42;;;;;;;7.57;2.47;;;;;;;16.40;100.00;102106.53;2615547;36;20420;-49
2022/07/22 04:16:10;;;;;;;5.35;2.35;;;;;;;16.46;100.00;102104.09;2614313;36;20100;-50
2022/07/22 04:18:38;;;;;;;6.20;2.73;;;;;;;16.53;100.00;102100.81;2614802;36;20046;-57
2022/07/22 04:21:07;;;;;;;3.70;2.33;;;;;;;16.41;100.00;102102.81;2614825;36;20038;-53
2022/07/22 04:23:36;;;;;;;4.72;2.80;;;;;;;16.42;100.00;102099.97;2615392;36;20041;-49
2022/07/22 04:26:04;;;;;;;6.28;2.30;;;;;;;16.47;100.00;102107.69;2614697;36;20642;-49
2022/07/22 04:28:34;;;;;;;9.60;2.67;;;;;;;16.51;100.00;102105.53;2615358;36;20046;-50
2022/07/22 04:31:06;;;;;;;5.63;3.38;;;;;;;16.56;100.00;102100.50;2615130;36;20516;-53
2022/07/22 04:33:35;;;;;;;11.00;2.70;;;;;;;16.59;100.00;102106.53;2615332;36;20026;-50
2022/07/22 04:36:03;;;;;;;6.37;2.90;;;;;;;16.56;100.00;102100.50;2614383;36;20072;-52
2022/07/22 04:38:31;;;;;;;4.57;1.90;;;;;;;16.64;100.00;102103.38;2615900;36;20038;-57
2022/07/22 04:41:00;;;;;;;4.83;2.40;;;;;;;16.55;100.00;102099.66;2614427;36;20038;-52
2022/07/22 04:43:28;;;;;;;6.47;3.35;;;;;;;16.43;100.00;102096.25;2616149;36;20046;-49
2022/07/22 04:45:57;;;;;;;5.17;2.53;;;;;;;16.48;100.00;102092.25;2615733;36;20069;-53
2022/07/22 04:48:28;;;;;;;;;;;;;;;16.49;100.00;102093.94;2615289;36;20307;-56
2022/07/22 04:51:00;;;;;;;9.20;3.22;;;;;;;16.43;100.00;102096.25;2615617;36;19973;-51
2022/07/22 04:53:28;;;;;;;8.35;2.70;;;;;;;16.48;100.00;102097.69;2616319;31;20040;-49
2022/07/22 04:55:57;;;;;;;8.05;2.50;;;;;;;16.58;100.00;102093.09;2615624;36;20030;-53
2022/07/22 04:58:25;;;;;;;6.57;2.05;;;;;;;16.50;100.00;102090.22;2615390;36;20566;-55
2022/07/22 05:00:54;;;;;;;5.65;2.38;;;;;;;16.56;100.00;102095.06;2615627;36;20061;-56
2022/07/22 05:03:24;;;;;;;6.55;2.35;;;;;;;16.61;100.00;102093.66;2615200;36;20041;-50
2022/07/22 05:05:55;;;;;;;6.53;2.17;;;;;;;16.73;100.00;102091.63;2615196;36;20031;-55
2022/07/22 05:08:23;;;;;;;8.90;2.75;;;;;;;16.73;100.00;102085.34;2616018;31;20039;-51
2022/07/22 05:10:51;;;;;;;4.23;2.63;;;;;;;16.80;100.00;102100.06;2615467;31;20610;-51
2022/07/22 05:13:19;;;;;;;4.17;2.20;;;;;;;16.82;100.00;102090.72;2615668;36;20023;-51
2022/07/22 05:15:48;;;;;;;2.90;1.90;;;;;;;16.86;100.00;102091.31;2615500;36;20034;-50
2022/07/22 05:18:16;;;;;;;6.27;2.20;;;;;;;16.95;100.00;102092.31;2615409;31;20053;-53
2022/07/22 05:20:44;;;;;;;5.43;2.60;;;;;;;16.86;100.00;102085.00;2614992;36;20046;-57
2022/07/22 05:23:15;;;;;;;4.43;2.37;;;;;;;16.90;100.00;102090.03;2615995;36;20034;-49
2022/07/22 05:25:43;;;;;;;10.55;2.40;;;;;;;16.82;100.00;102082.56;2616279;36;20658;-57
2022/07/22 05:28:12;;;;;;;5.53;2.00;;;;;;;16.85;100.00;102094.19;2615716;36;20590;-55
2022/07/22 05:30:40;;;;;;;5.73;1.70;;;;;;;17.06;100.00;102094.84;2615466;36;20030;-55
2022/07/22 05:33:08;;;;;;;4.18;2.20;;;;;;;17.05;100.00;102098.59;2615227;36;20030;-49
2022/07/22 05:35:37;;;;;;;3.38;1.90;;;;;;;16.90;100.00;102100.94;2615723;36;20451;-50
2022/07/22 05:38:05;;;;;;;3.95;1.98;;;;;;;16.82;100.00;102104.31;2615798;36;20436;-53
2022/07/22 05:40:36;;;;;;;4.40;2.00;;;;;;;16.95;100.00;102101.31;2615797;36;20126;-53
2022/07/22 05:43:04;;;;;;;3.15;1.98;;;;;;;17.14;100.00;102116.72;2615750;36;20065;-50
2022/07/22 05:45:33;;;;;;;6.10;2.07;;;;;;;17.23;100.00;102117.69;2615547;31;20059;-48
2022/07/22 05:48:01;;;;;;;5.20;1.93;;;;;;;17.11;100.00;102116.19;2615401;36;20038;-55
2022/07/22 05:50:30;;;;;;;6.50;1.80;;;;;;;17.15;100.00;102117.56;2615339;36;20046;-49
2022/07/22 05:52:58;;;;;;;5.35;2.20;;;;;;;17.21;100.00;102107.97;2615864;31;20295;-52
2022/07/22 05:55:26;;;;;;;3.03;1.90;;;;;;;17.31;100.00;102111.50;2615470;36;20039;-54
2022/07/22 05:57:57;;;;;;;5.80;1.92;;;;;;;17.23;100.00;102105.97;2615640;36;20145;-51
2022/07/22 06:00:26;;;;;;;7.82;1.98;;;;;;;17.36;100.00;102102.88;2615544;31;20041;-52
2022/07/22 06:02:54;;;;;;;4.30;2.20;;;;;;;17.36;100.00;102102.88;2615369;36;20063;-52
2022/07/22 06:05:22;;;;;;;3.38;1.90;;;;;;;17.30;100.00;102097.03;2615585;36;20143;-54
2022/07/22 06:07:51;;;;;;;6.68;2.33;;;;;;;17.29;100.00;102108.94;2615993;36;20431;-49
2022/07/22 06:10:19;;;;;;;4.90;1.92;;;;;;;17.36;100.00;102097.44;2614858;36;20030;-50
2022/07/22 06:12:47;;;;;;;6.70;2.25;;;;;;;17.53;100.00;102091.19;2616262;36;20583;-49
2022/07/22 06:15:18;;;;;;;6.37;1.77;;;;;;;17.60;100.00;102092.31;2615381;36;20554;-49
2022/07/22 06:17:46;;;;;;;5.60;2.20;;;;;;;17.67;100.00;102096.13;2615107;36;20566;-50
2022/07/22 06:20:15;;;;;;;6.27;2.10;;;;;;;17.64;100.00;102101.88;2615220;36;20038;-56
2022/07/22 06:22:43;;;;;;;4.30;2.00;;;;;;;17.44;100.00;102101.13;2615843;36;20034;-49
2022/07/22 06:25:11;;;;;;;5.45;2.05;;;;;;;17.55;100.00;102107.38;2615180;36;20158;-55
2022/07/22 06:27:40;;;;;;;7.40;2.07;;;;;;;17.78;100.00;102107.81;2616079;36;20038;-51
2022/07/22 06:30:09;;;;;;;4.73;1.90;;;;;;;17.78;100.00;102103.22;2615395;36;20409;-51
2022/07/22 06:32:40;;;;;;;4.63;2.15;;;;;;;17.66;100.00;102105.28;2615073;36;21013;-51
2022/07/22 06:35:10;;;;;;;7.80;2.22;;;;;;;17.64;100.00;102103.75;2614722;36;20081;-53
2022/07/22 06:37:38;;;;;;;3.53;1.75;;;;;;;17.74;100.00;102103.69;2615339;36;20030;-52
2022/07/22 06:40:08;;;;;;;2.67;1.73;;;;;;;17.68;100.00;102099.69;2615156;36;20039;-54
2022/07/22 06:42:37;;;;;;;3.58;1.70;;;;;;;17.78;100.00;102108.66;2616248;36;20700;-50
2022/07/22 06:45:06;;;;;;;;;;;;;;;17.85;100.00;102109.75;2615400;36;20057;-49
2022/07/22 06:47:35;;;;;;;4.28;1.60;;;;;;;18.05;100.00;102106.97;2615273;36;20005;-54
2022/07/22 06:50:07;;;;;;;3.90;1.73;;;;;;;18.26;100.00;102100.34;2615225;36;20570;-50
2022/07/22 06:52:35;;;;;;;6.15;2.17;;;;;;;18.21;100.00;102090.75;2615560;36;20077;-54
2022/07/22 06:55:03;;;;;;;3.83;1.85;;;;;;;18.15;100.00;102099.56;2615066;36;20107;-51
2022/07/22 06:57:32;;;;;;;5.73;1.63;;;;;;;18.11;100.00;102100.88;2615336;36;20618;-55
2022/07/22 07:00:00;;;;;;;4.30;1.87;;;;;;;18.27;100.00;102099.31;2615653;36;20078;-49
2022/07/22 07:02:28;;;;;;;4.90;1.63;;;;;;;17.86;100.00;102100.59;2614870;36;20812;-51
2022/07/22 07:04:56;;;;;;;3.63;1.70;;;;;;;17.75;100.00;102103.53;2615434;36;20089;-48
2022/07/22 07:07:27;;;;;;;4.50;1.70;;;;;;;17.88;100.00;102096.88;2614912;36;20295;-49
2022/07/22 07:09:56;;;;;;;4.53;1.70;;;;;;;17.93;100.00;102100.00;2615494;36;20057;-51
2022/07/22 07:12:24;;;;;;;3.17;1.73;;;;;;;18.33;100.00;102091.38;2615110;36;20077;-50
2022/07/22 07:14:52;;;;;;;3.50;1.60;;;;;;;18.38;100.00;102101.81;2615467;36;20354;-48
2022/07/22 07:17:20;;;;;;;5.47;1.60;;;;;;;18.46;100.00;102101.88;2615254;36;20047;-49
2022/07/22 07:19:49;;;;;;;3.47;1.50;;;;;;;18.65;100.00;102097.22;2615990;36;20042;-49
2022/07/22 07:22:18;;;;;;;;;;;;;;;18.66;100.00;102097.06;2615233;36;20075;-52
2022/07/22 07:24:49;;;;;;;3.33;1.87;;;;;;;18.69;100.00;102085.00;2615399;36;19954;-50
2022/07/22 07:27:17;;;;;;;3.00;1.40;;;;;;;18.46;100.00;102096.44;2615130;36;20030;-50
2022/07/22 07:29:45;;;;;;;4.43;1.65;;;;;;;18.66;100.00;102088.03;2615399;36;20035;-48
2022/07/22 07:32:14;;;;;;;4.70;2.17;;;;;;;18.74;100.00;102088.09;2614348;36;20042;-54
2022/07/22 07:34:42;;;;;;;5.45;1.90;;;;;;;18.82;100.00;102084.59;2615259;36;20030;-56
2022/07/22 07:37:10;;;;;;;5.45;1.80;;;;;;;18.80;100.00;102092.94;2614975;36;20035;-52
2022/07/22 07:39:39;;;;;;;2.67;1.55;;;;;;;18.87;100.00;102085.84;2615520;31;20570;-49
2022/07/22 07:42:10;;;;;;;4.55;1.88;;;;;;;18.84;100.00;102085.25;2614721;36;20042;-52
2022/07/22 07:44:38;;;;;;;3.53;1.73;;;;;;;18.89;100.00;102083.81;2615556;31;20034;-48
2022/07/22 07:47:06;;;;;;;2.88;1.83;;;;;;;19.11;100.00;102084.28;2614883;31;20037;-49
2022/07/22 07:49:35;;;;;;;5.97;2.08;;;;;;;19.21;100.00;102075.94;2615275;36;20061;-49
2022/07/22 07:52:03;;;;;;;4.70;2.05;;;;;;;19.21;100.00;102078.66;2614846;36;20030;-50
2022/07/22 07:54:31;;;;;;;3.97;1.85;;;;;;;19.00;100.00;102076.34;2615399;36;20452;-48
2022/07/22 07:56:59;;;;;;;5.93;1.70;;;;;;;19.20;100.00;102075.09;2614329;36;20050;-50
2022/07/22 07:59:30;;;;;;;4.70;1.52;;;;;;;19.15;100.00;102079.34;2615219;36;20039;-48
2022/07/22 08:01:59;;;;;;;3.55;1.83;;;;;;;18.97;100.00;102087.59;2614762;36;20038;-48
2022/07/22 08:04:27;;;;;;;7.07;1.73;;;;;;;19.19;100.00;102084.28;2615168;31;20042;-49
2022/07/22 08:06:56;;;;;;;3.63;1.45;;;;;;;19.31;100.00;102082.13;2614694;36;20295;-50
2022/07/22 08:09:24;;;;;;;3.70;1.60;;;;;;;19.38;100.00;102083.19;2614940;36;20035;-50
2022/07/22 08:11:52;;;;;;;2.67;1.40;;;;;;;19.07;100.00;102081.00;2615000;36;20030;-46
2022/07/22 08:14:21;;;;;;;3.92;1.48;;;;;;;19.48;100.00;102080.34;2615177;36;20331;-49
2022/07/22 08:16:52;;;;;;;4.93;1.50;;;;;;;19.35;100.00;102072.59;2614503;31;20034;-52
2022/07/22 08:19:20;;;;;;;4.95;1.30;;;;;;;19.40;100.00;102088.47;2615376;36;20552;-52
2022/07/22 08:21:48;;;;;;;5.05;1.40;;;;;;;19.41;100.00;102087.47;2614610;36;20034;-51
2022/07/22 08:24:17;;;;;;;2.15;1.10;;;;;;;19.26;100.00;102092.69;2615092;31;20023;-49
2022/07/22 08:26:45;;;;;;;3.63;1.33;;;;;;;19.52;100.00;102081.72;2614832;36;20061;-50
2022/07/22 08:29:13;;;;;;;3.35;1.33;;;;;;;19.39;100.00;102086.75;2614687;36;20041;-55
2022/07/22 08:31:42;;;;;;;5.00;1.45;;;;;;;19.45;100.00;102083.41;2614405;36;20053;-55
2022/07/22 08:34:13;;;;;;;3.33;1.42;;;;;;;19.75;100.00;102084.66;2615149;36;20049;-50
2022/07/22 08:36:41;;;;;;;1.95;1.00;;;;;;;19.45;100.00;102080.66;2614614;36;20075;-53
2022/07/22 08:39:09;;;;;;;5.38;1.30;;;;;;;19.57;100.00;102076.59;2615557;36;20064;-49
2022/07/22 08:41:39;;;;;;;3.83;1.30;;;;;;;19.95;100.00;102068.88;2614505;36;20034;-48
2022/07/22 08:44:10;;;;;;;2.63;0.90;;;;;;;19.87;100.00;102066.09;2614704;36;20026;-56
2022/07/22 08:46:38;;;;;;;2.45;0.95;;;;;;;19.90;100.00;102073.97;2613743;31;20030;-50
2022/07/22 08:49:08;;;;;;;1.85;1.10;;;;;;;19.71;100.00;102076.97;2615550;36;20034;-50
2022/07/22 08:51:38;;;;;;;2.85;1.00;;;;;;;20.09;100.00;102071.94;2614203;36;20023;-49
2022/07/22 08:54:07;;;;;;;3.17;1.10;;;;;;;20.14;100.00;102061.38;2614334;36;20602;-49
2022/07/22 08:56:37;;;;;;;1.95;1.10;;;;;;;20.02;100.00;102070.91;2614857;36;20435;-49
2022/07/22 08:59:06;;;;;;;2.25;1.13;;;;;;;20.06;100.00;102067.66;2614729;36;20035;-49
2022/07/22 09:01:37;;;;;;;2.33;1.00;;;;;;;20.35;100.00;102070.94;2614484;36;20034;-51
2022/07/22 09:04:06;;;;;;;3.03;1.30;;;;;;;20.43;100.00;102071.78;2614177;31;20061;-50
2022/07/22 09:06:35;;;;;;;;;;;;;;;20.17;100.00;102063.78;2614610;36;20098;-49
2022/07/22 09:09:09;;;;;;;;;;;;;;;20.55;100.00;102055.88;2614831;36;20362;-51
2022/07/22 09:11:37;;;;;;;2.38;1.20;;;;;;;20.44;100.00;102057.09;2614226;36;19953;-49
2022/07/22 09:14:05;;;;;;;4.78;1.20;;;;;;;21.03;100.00;102057.88;2613917;31;20035;-49
2022/07/22 09:16:41;;;;;;;1.95;0.90;;;;;;;20.99;100.00;102055.47;2613794;36;20034;-54
2022/07/22 09:19:10;;;;;;;2.78;1.10;;;;;;;21.00;100.00;102064.53;2614749;36;20627;-50
2022/07/22 09:21:40;;;;;;;2.42;1.33;;;;;;;20.45;100.00;102055.19;2614075;36;20038;-53
2022/07/22 09:24:27;;;;;;;3.45;1.20;;;;;;;21.20;100.00;102051.31;2614678;36;20042;-47
2022/07/22 09:26:57;;;;;;;4.20;1.15;;;;;;;21.41;100.00;102055.31;2614465;36;20069;-52
2022/07/22 09:29:26;;;;;;;2.75;0.90;;;;;;;21.17;100.00;102051.63;2615787;36;20038;-52
2022/07/22 09:31:55;;;;;;;;;;;;;;;21.27;100.00;102038.56;2613564;36;20043;-49
2022/07/22 09:34:30;;;;;;;3.97;1.42;;;;;;;21.16;100.00;102037.09;2614769;31;19947;-47
2022/07/22 09:37:00;;;;;;;2.05;1.23;;;;;;;21.09;100.00;102038.00;2614555;31;20073;-50
2022/07/22 09:39:33;;;;;;;2.47;1.20;;;;;;;21.39;100.00;102040.94;2615772;36;20030;-53
2022/07/22 09:42:02;;;;;;;2.33;0.80;;;;;;;21.78;100.00;102042.81;2615745;36;20503;-50
2022/07/22 09:44:30;;;;;;;2.03;1.00;;;;;;;21.93;100.00;102040.97;2615154;36;20066;-49
2022/07/22 09:46:59;;;;;;;5.38;1.27;;;;;;;22.17;100.00;102044.53;2614613;31;20057;-53
2022/07/22 09:49:35;;;;;;;3.28;1.27;;;;;;;22.03;100.00;102058.03;2616043;36;20034;-54
2022/07/22 09:52:04;;;;;;;5.45;1.35;;;;;;;21.86;100.00;102051.81;2615736;36;20035;-47
2022/07/22 09:54:35;;;;;;;4.85;1.50;;;;;;;21.71;100.00;102064.56;2615709;36;20122;-48
2022/07/22 09:57:04;;;;;;;5.45;1.90;;;;;;;21.18;100.00;102056.09;2615482;36;20038;-53
2022/07/22 09:59:32;;;;;;;3.10;1.40;;;;;;;21.57;100.00;102057.13;2615653;36;20068;-54
2022/07/22 10:02:06;;;;;;;3.20;1.40;;;;;;;21.99;100.00;102048.44;2614802;36;20053;-49
2022/07/22 10:04:36;;;;;;;4.28;1.80;;;;;;;22.09;100.00;102052.84;2615348;36;20030;-49
2022/07/22 10:07:05;;;;;;;4.90;1.40;;;;;;;22.25;100.00;102058.19;2615454;36;20544;-51
2022/07/22 10:09:36;;;;;;;;;;;;;;;22.17;100.00;102052.78;2615690;36;20065;-51
2022/07/22 10:12:05;;;;;;;2.75;1.50;;;;;;;21.65;100.00;102055.19;2615603;36;19954;-50
2022/07/22 10:14:37;;;;;;;3.15;1.30;;;;;;;21.79;100.00;102052.69;2615060;36;20087;-53
2022/07/22 10:17:06;;;;;;;4.43;1.83;;;;;;;21.13;100.00;102044.81;2614731;36;20035;-49
2022/07/22 10:19:35;;;;;;;4.20;1.52;;;;;;;21.04;100.00;102045.88;2615460;36;20030;-50
2022/07/22 10:22:03;;;;;;;3.78;1.60;;;;;;;21.33;100.00;102043.38;2615240;36;20039;-49
2022/07/22 10:24:31;;;;;;;4.50;1.75;;;;;;;21.92;100.00;102047.47;2615386;36;20031;-52
2022/07/22 10:27:02;;;;;;;4.75;1.60;;;;;;;21.89;100.00;102039.63;2615167;36;20022;-53
2022/07/22 10:29:32;;;;;;;3.45;1.85;;;;;;;22.64;100.00;102048.94;2615537;36;20038;-53
2022/07/22 10:32:25;;;;;;;3.95;1.52;;;;;;;22.79;100.00;102053.59;2614871;31;20555;-48
2022/07/22 10:35:24;;;;;;;3.65;1.00;;;;;;;23.22;100.00;102043.69;2615890;36;20130;-49
2022/07/22 10:38:02;;;;;;;2.97;1.60;;;;;;;22.81;100.00;102057.03;2615243;36;20030;-49
2022/07/22 10:40:32;;;;;;;2.45;1.00;;;;;;;22.65;100.00;102058.03;2614541;36;20045;-48
2022/07/22 10:43:12;;;;;;;2.10;1.02;;;;;;;22.60;100.00;102055.84;2616090;36;20960;-47
2022/07/22 10:45:45;;;;;;;2.28;1.20;;;;;;;22.68;100.00;102064.00;2615785;36;20455;-49
2022/07/22 10:48:14;;;;;;;3.92;1.33;;;;;;;22.53;100.00;102052.16;2615259;36;20126;-48
2022/07/22 10:51:10;;;;;;;4.15;1.13;;;;;;;22.39;100.00;102049.19;2615154;36;20038;-51
2022/07/22 10:53:47;;;;;;;3.30;0.90;;;;;;;22.07;100.00;102055.78;2615338;36;20035;-50
2022/07/22 10:56:21;;;;;;;1.50;1.00;;;;;;;22.12;100.00;102042.34;2615095;36;20030;-53
2022/07/22 10:58:55;;;;;;;2.83;1.35;;;;;;;21.91;100.00;102032.09;2615871;36;20050;-47
2022/07/22 11:01:26;;;;;;;3.35;1.67;;;;;;;21.90;100.00;102038.59;2614543;36;20045;-50
2022/07/22 11:03:55;;;;;;;4.35;1.30;;;;;;;21.85;100.00;102046.53;2615570;31;20038;-49
2022/07/22 11:06:27;;;;;;;1.88;1.20;;;;;;;21.53;100.00;102042.94;2614640;36;20035;-50
2022/07/22 11:08:57;;;;;;;2.13;1.15;;;;;;;21.54;100.00;102041.94;2615569;36;20560;-49
2022/07/22 11:11:45;;;;;;;5.93;1.30;;;;;;;22.12;100.00;102053.31;2615203;36;20650;-49
2022/07/22 11:14:19;;;;;;;2.85;1.25;;;;;;;22.47;100.00;102055.66;2615367;36;20038;-54
2022/07/22 11:16:49;;;;;;;3.92;1.25;;;;;;;22.30;100.00;102054.91;2614816;36;20474;-52
2022/07/22 11:19:22;;;;;;;4.18;1.13;;;;;;;22.25;100.00;102058.19;2615665;31;20592;-50
2022/07/22 11:21:56;;;;;;;2.58;1.55;;;;;;;22.20;100.00;102052.41;2614932;36;20035;-51
2022/07/22 11:24:26;;;;;;;2.40;1.42;;;;;;;22.03;100.00;102048.94;2615172;36;20044;-47
2022/07/22 11:26:56;;;;;;;2.58;1.40;;;;;;;21.87;100.00;102048.03;2614653;36;20038;-48
2022/07/22 11:29:30;;;;;;;2.92;1.27;;;;;;;22.26;100.00;102043.47;2615230;36;20038;-51